createdAt,value
2019-03-01T00:01:20.148Z,6.40
2019-03-01T00:03:54.625Z,6.10
2019-03-01T00:06:31.905Z,6.90
2019-03-01T00:09:24.694Z,6.40
2019-03-01T00:12:14.583Z,5.87
2019-03-01T00:15:14.915Z,5.53
2019-03-01T00:18:04.572Z,5.73
2019-03-01T00:20:42.135Z,5.97
2019-03-01T00:23:16.527Z,5.70
2019-03-01T00:25:51.212Z,5.53
2019-03-01T00:28:43.453Z,5.60
2019-03-01T00:31:23.979Z,5.60
2019-03-01T00:34:12.173Z,5.90
2019-03-01T00:36:46.745Z,5.73
2019-03-01T00:39:24.341Z,5.70
2019-03-01T00:41:55.845Z,5.30
2019-03-01T00:44:44.632Z,5.07
2019-03-01T00:47:13.286Z,5.87
2019-03-01T00:49:41.587Z,5.20
2019-03-01T00:52:10.201Z,5.30
2019-03-01T00:54:38.471Z,4.90
2019-03-01T00:57:07.181Z,5.00
2019-03-01T00:59:35.433Z,4.67
2019-03-01T01:02:03.736Z,5.07
2019-03-01T01:04:32.053Z,5.37
2019-03-01T01:07:00.374Z,7.30
2019-03-01T01:09:28.707Z,5.87
2019-03-01T01:11:56.972Z,5.00
2019-03-01T01:14:25.259Z,5.27
2019-03-01T01:16:53.574Z,5.77
2019-03-01T01:19:21.853Z,6.30
2019-03-01T01:21:50.112Z,4.70
2019-03-01T01:24:18.466Z,4.00
2019-03-01T01:26:46.725Z,4.00
2019-03-01T01:29:14.978Z,3.77
2019-03-01T01:31:43.621Z,3.83
2019-03-01T01:34:11.874Z,4.80
2019-03-01T01:36:40.142Z,4.27
2019-03-01T01:39:08.389Z,4.03
2019-03-01T01:41:36.658Z,3.47
2019-03-01T01:44:05.276Z,3.80
2019-03-01T01:46:33.793Z,3.47
2019-03-01T01:49:02.061Z,3.67
2019-03-01T01:51:30.348Z,3.77
2019-03-01T01:53:59.027Z,3.80
2019-03-01T01:56:27.361Z,3.13
2019-03-01T01:58:55.989Z,3.77
2019-03-01T02:01:24.327Z,4.57
2019-03-01T02:03:52.602Z,5.30
2019-03-01T02:06:20.860Z,4.10
2019-03-01T02:08:49.500Z,3.47
2019-03-01T02:11:17.817Z,3.10
2019-03-01T02:13:46.492Z,3.50
2019-03-01T02:16:14.745Z,3.40
2019-03-01T02:18:43.050Z,3.27
2019-03-01T02:21:11.371Z,2.83
2019-03-01T02:23:40.242Z,3.20
2019-03-01T02:26:08.573Z,2.83
2019-03-01T02:28:37.028Z,3.33
2019-03-01T02:31:07.913Z,2.90
2019-03-01T02:33:38.043Z,2.70
2019-03-01T02:36:06.327Z,2.80
2019-03-01T02:38:35.049Z,2.80
2019-03-01T02:41:03.313Z,3.03
2019-03-01T02:43:31.600Z,3.03
2019-03-01T02:45:59.880Z,2.90
2019-03-01T02:48:28.213Z,2.93
2019-03-01T02:50:56.476Z,3.27
2019-03-01T02:53:24.766Z,3.10
2019-03-01T02:55:53.081Z,3.20
2019-03-01T02:58:21.354Z,3.60
2019-03-01T03:00:49.601Z,3.47
2019-03-01T03:03:17.874Z,3.60
2019-03-01T03:05:48.064Z,3.63
2019-03-01T03:08:16.339Z,3.80
2019-03-01T03:10:44.585Z,3.87
2019-03-01T03:13:17.833Z,3.50
2019-03-01T03:15:47.649Z,3.80
2019-03-01T03:18:15.922Z,3.63
2019-03-01T03:20:44.167Z,4.07
2019-03-01T03:23:12.445Z,4.17
2019-03-01T03:25:40.691Z,3.83
2019-03-01T03:28:09.034Z,4.10
2019-03-01T03:30:37.281Z,4.20
2019-03-01T03:33:05.570Z,4.73
2019-03-01T03:35:33.891Z,4.57
2019-03-01T03:38:02.208Z,4.77
2019-03-01T03:40:30.474Z,4.50
2019-03-01T03:42:58.844Z,4.33
2019-03-01T03:45:27.146Z,5.03
2019-03-01T03:47:55.384Z,4.93
2019-03-01T03:50:23.650Z,4.90
2019-03-01T03:52:51.919Z,5.00
2019-03-01T03:55:20.313Z,4.90
2019-03-01T03:57:48.835Z,5.20
2019-03-01T04:00:19.708Z,5.00
2019-03-01T04:02:48.012Z,5.27
2019-03-01T04:05:16.333Z,5.10
2019-03-01T04:07:44.587Z,4.87
2019-03-01T04:10:12.874Z,4.60
2019-03-01T04:12:41.199Z,5.40
2019-03-01T04:15:14.615Z,5.33
2019-03-01T04:17:42.866Z,5.13
2019-03-01T04:20:14.149Z,4.43
2019-03-01T04:22:42.841Z,5.30
2019-03-01T04:25:11.185Z,5.37
2019-03-01T04:27:39.423Z,5.20
2019-03-01T04:30:10.955Z,5.47
2019-03-01T04:32:39.205Z,5.60
2019-03-01T04:35:07.470Z,5.17
2019-03-01T04:37:35.730Z,5.20
2019-03-01T04:40:06.775Z,5.00
2019-03-01T04:42:35.231Z,4.83
2019-03-01T04:45:04.539Z,4.97
2019-03-01T04:47:32.778Z,5.13
2019-03-01T04:50:01.053Z,4.53
2019-03-01T04:52:33.632Z,4.63
2019-03-01T04:55:02.294Z,4.60
2019-03-01T04:57:30.540Z,5.03
2019-03-01T04:59:58.813Z,4.73
2019-03-01T05:02:27.084Z,5.00
2019-03-01T05:04:55.426Z,5.37
2019-03-01T05:07:23.699Z,5.30
2019-03-01T05:09:52.217Z,5.03
2019-03-01T05:12:20.489Z,4.90
2019-03-01T05:14:48.735Z,5.57
2019-03-01T05:17:17.006Z,5.10
2019-03-01T05:19:45.270Z,4.97
2019-03-01T05:22:13.609Z,5.93
2019-03-01T05:24:41.870Z,5.47
2019-03-01T05:27:10.216Z,5.17
2019-03-01T05:29:38.782Z,5.13
2019-03-01T05:32:07.101Z,5.50
2019-03-01T05:34:35.340Z,5.30
2019-03-01T05:37:03.926Z,5.37
2019-03-01T05:39:32.190Z,5.40
2019-03-01T05:42:00.450Z,5.53
2019-03-01T05:44:28.714Z,4.90
2019-03-01T05:46:56.991Z,4.97
2019-03-01T05:49:25.605Z,5.67
2019-03-01T05:51:53.863Z,5.47
2019-03-01T05:54:22.126Z,6.07
2019-03-01T05:56:50.371Z,5.13
2019-03-01T05:59:21.002Z,5.60
2019-03-01T06:02:10.638Z,6.13
2019-03-01T06:04:47.791Z,5.60
2019-03-01T06:07:24.827Z,6.27
2019-03-01T06:10:17.829Z,5.63
2019-03-01T06:13:10.673Z,5.80
2019-03-01T06:15:51.410Z,5.83
2019-03-01T06:18:55.131Z,6.13
2019-03-01T06:21:35.054Z,6.00
2019-03-01T06:24:22.984Z,5.77
2019-03-01T06:27:00.223Z,6.33
2019-03-01T06:29:34.669Z,6.60
2019-03-01T06:32:17.462Z,6.87
2019-03-01T06:34:48.979Z,5.53
2019-03-01T06:37:37.260Z,6.37
2019-03-01T06:40:29.866Z,6.40
2019-03-01T06:43:09.677Z,6.47
2019-03-01T06:45:57.797Z,6.27
2019-03-01T06:48:27.713Z,6.20
2019-03-01T06:50:57.595Z,5.80
2019-03-01T06:53:25.865Z,6.60
2019-03-01T06:55:54.141Z,6.43
2019-03-01T06:58:22.406Z,6.40
2019-03-01T07:00:52.359Z,6.50
2019-03-01T07:03:20.622Z,6.40
2019-03-01T07:05:48.887Z,6.23
2019-03-01T07:08:17.178Z,7.03
2019-03-01T07:10:45.489Z,5.80
2019-03-01T07:13:13.818Z,5.87
2019-03-01T07:15:42.339Z,6.37
2019-03-01T07:18:10.622Z,6.23
2019-03-01T07:20:38.885Z,6.87
2019-03-01T07:23:07.218Z,6.70
2019-03-01T07:25:35.553Z,6.73
2019-03-01T07:28:03.821Z,6.37
2019-03-01T07:30:32.416Z,6.40
2019-03-01T07:33:00.694Z,6.30
2019-03-01T07:35:29.121Z,5.50
2019-03-01T07:37:57.362Z,5.17
2019-03-01T07:40:25.670Z,5.40
2019-03-01T07:42:54.192Z,5.70
2019-03-01T07:45:24.462Z,5.33
2019-03-01T07:47:53.099Z,5.90
2019-03-01T07:50:21.359Z,5.00
2019-03-01T07:52:49.601Z,5.67
2019-03-01T07:55:17.897Z,5.90
2019-03-01T07:57:46.540Z,5.23
2019-03-01T08:00:17.285Z,5.60
2019-03-01T08:02:46.076Z,5.50
2019-03-01T08:05:16.489Z,5.13
2019-03-01T08:07:55.121Z,5.53
2019-03-01T08:10:20.649Z,5.17
2019-03-01T08:12:47.602Z,4.67
2019-03-01T08:15:17.107Z,5.67
2019-03-01T08:17:45.669Z,6.30
2019-03-01T08:20:15.894Z,7.00
2019-03-01T08:22:48.472Z,3.97
2019-03-01T08:25:14.280Z,3.73
2019-03-01T08:27:46.391Z,3.40
2019-03-01T08:30:16.416Z,3.03
2019-03-01T08:32:44.745Z,3.07
2019-03-01T08:35:14.155Z,2.73
2019-03-01T08:37:42.414Z,2.60
2019-03-01T08:40:18.494Z,2.27
2019-03-01T08:42:46.855Z,2.70
2019-03-01T08:45:20.337Z,2.47
2019-03-01T08:47:49.041Z,2.43
2019-03-01T08:50:18.218Z,2.30
2019-03-01T08:52:46.740Z,8.23
2019-03-01T08:55:30.948Z,4.97
2019-03-01T08:58:03.468Z,2.10
2019-03-01T09:00:34.657Z,2.17
2019-03-01T09:03:12.216Z,2.13
2019-03-01T09:05:40.628Z,2.20
2019-03-01T09:08:08.917Z,2.23
2019-03-01T09:10:37.233Z,2.13
2019-03-01T09:13:05.479Z,1.80
2019-03-01T09:15:33.778Z,2.33
2019-03-01T09:18:02.355Z,1.97
2019-03-01T09:20:32.549Z,1.90
2019-03-01T09:23:03.318Z,1.70
2019-03-01T09:25:31.075Z,1.90
2019-03-01T09:27:59.360Z,1.87
2019-03-01T09:30:27.935Z,1.90
2019-03-01T09:32:56.527Z,1.60
2019-03-01T09:35:35.832Z,1.70
2019-03-01T09:38:07.710Z,1.87
2019-03-01T09:40:36.702Z,2.00
2019-03-01T09:43:04.877Z,1.70
2019-03-01T09:45:36.265Z,2.10
2019-03-01T09:48:05.022Z,1.57
2019-03-01T09:50:34.478Z,2.10
2019-03-01T09:53:03.147Z,1.63
2019-03-01T09:55:31.433Z,2.00
2019-03-01T09:57:59.688Z,2.20
2019-03-01T10:00:31.188Z,2.10
2019-03-01T10:02:59.543Z,2.50
2019-03-01T10:05:27.910Z,2.67
2019-03-01T10:07:56.163Z,2.40
2019-03-01T10:10:27.355Z,2.43
2019-03-01T10:12:56.334Z,2.83
2019-03-01T10:15:24.738Z,2.90
2019-03-01T10:17:53.166Z,2.90
2019-03-01T10:20:21.440Z,2.90
2019-03-01T10:22:49.747Z,3.03
2019-03-01T10:25:19.124Z,2.70
2019-03-01T10:27:47.382Z,2.60
2019-03-01T10:30:20.744Z,3.13
2019-03-01T10:32:49.355Z,3.80
2019-03-01T10:35:17.641Z,4.30
2019-03-01T10:37:45.989Z,4.40
2019-03-01T10:40:23.200Z,5.03
2019-03-01T10:42:51.545Z,6.20
2019-03-01T10:45:25.447Z,5.83
2019-03-01T10:47:53.706Z,6.07
2019-03-01T10:50:21.996Z,5.37
2019-03-01T10:52:50.290Z,5.87
2019-03-01T10:55:19.793Z,6.10
2019-03-01T10:57:48.619Z,6.00
2019-03-01T11:00:28.184Z,6.10
2019-03-01T11:02:57.309Z,6.27
2019-03-01T11:05:26.172Z,7.77
2019-03-01T11:07:55.775Z,9.10
2019-03-01T11:10:42.307Z,10.93
2019-03-01T11:13:13.882Z,11.07
2019-03-01T11:15:42.243Z,12.47
2019-03-01T11:18:10.515Z,11.33
2019-03-01T11:20:38.807Z,12.30
2019-03-01T11:23:07.172Z,12.77
2019-03-01T11:25:35.522Z,13.67
2019-03-01T11:28:03.892Z,12.33
2019-03-01T11:30:34.478Z,13.00
2019-03-01T11:33:03.116Z,12.63
2019-03-01T11:35:31.429Z,12.43
2019-03-01T11:37:59.727Z,12.33
2019-03-01T11:40:36.015Z,12.10
2019-03-01T11:43:05.703Z,11.90
2019-03-01T11:45:33.968Z,11.80
2019-03-01T11:48:02.354Z,13.17
2019-03-01T11:50:30.638Z,12.33
2019-03-01T11:52:59.326Z,12.70
2019-03-01T11:55:28.198Z,12.37
2019-03-01T11:57:56.581Z,12.93
2019-03-01T12:00:26.853Z,13.47
2019-03-01T12:02:55.207Z,12.80
2019-03-01T12:05:23.536Z,12.70
2019-03-01T12:07:52.120Z,13.17
2019-03-01T12:10:30.122Z,14.10
2019-03-01T12:12:58.414Z,15.60
2019-03-01T12:15:26.793Z,16.43
2019-03-01T12:17:55.492Z,16.90
2019-03-01T12:20:29.248Z,17.20
2019-03-01T12:22:57.922Z,18.43
2019-03-01T12:25:26.554Z,18.33
2019-03-01T12:27:55.222Z,18.97
2019-03-01T12:30:26.172Z,19.27
2019-03-01T12:32:54.547Z,22.40
2019-03-01T12:35:22.871Z,21.20
2019-03-01T12:37:51.529Z,23.83
2019-03-01T12:40:27.879Z,23.60
2019-03-01T12:42:56.274Z,23.73
2019-03-01T12:45:24.628Z,22.70
2019-03-01T12:47:53.222Z,23.63
2019-03-01T12:50:21.571Z,24.50
2019-03-01T12:52:49.925Z,26.07
2019-03-01T12:55:26.552Z,24.37
2019-03-01T12:57:54.855Z,25.07
2019-03-01T13:00:31.771Z,25.03
2019-03-01T13:03:00.106Z,26.23
2019-03-01T13:05:30.520Z,26.00
2019-03-01T13:07:59.204Z,27.80
2019-03-01T13:10:36.713Z,27.23
2019-03-01T13:13:08.198Z,29.83
2019-03-01T13:15:34.446Z,29.70
2019-03-01T13:18:03.631Z,29.97
2019-03-01T13:20:33.902Z,29.67
2019-03-01T13:23:04.837Z,30.57
2019-03-01T13:25:32.197Z,32.23
2019-03-01T13:28:00.588Z,32.27
2019-03-01T13:30:32.544Z,29.17
2019-03-01T13:33:02.365Z,30.00
2019-03-01T13:35:29.355Z,29.37
2019-03-01T13:37:57.695Z,29.23
2019-03-01T13:40:25.964Z,30.53
2019-03-01T13:42:54.637Z,30.50
2019-03-01T13:45:24.396Z,30.60
2019-03-01T13:47:53.044Z,31.57
2019-03-01T13:50:22.303Z,31.00
2019-03-01T13:52:50.929Z,30.63
2019-03-01T13:55:22.454Z,31.93
2019-03-01T13:57:51.157Z,32.70
2019-03-01T14:00:21.063Z,31.30
2019-03-01T14:02:49.419Z,31.70
2019-03-01T14:05:17.948Z,29.70
2019-03-01T14:07:47.015Z,27.60
2019-03-01T14:10:27.068Z,26.97
2019-03-01T14:12:55.377Z,27.27
2019-03-01T14:15:23.675Z,28.73
2019-03-01T14:17:52.004Z,27.17
2019-03-01T14:20:21.320Z,27.90
2019-03-01T14:22:50.082Z,25.10
2019-03-01T14:25:18.369Z,24.77
2019-03-01T14:27:47.045Z,23.80
2019-03-01T14:30:20.064Z,25.30
2019-03-01T14:32:48.343Z,23.67
2019-03-01T14:35:16.628Z,25.57
2019-03-01T14:37:45.068Z,24.23
2019-03-01T14:40:15.551Z,26.30
2019-03-01T14:42:47.526Z,25.30
2019-03-01T14:45:19.548Z,25.30
2019-03-01T14:47:47.998Z,25.13
2019-03-01T14:50:18.463Z,25.27
2019-03-01T14:52:47.227Z,23.67
2019-03-01T14:55:19.740Z,25.23
2019-03-01T14:58:01.003Z,25.57
2019-03-01T15:00:32.964Z,26.17
2019-03-01T15:03:19.627Z,24.87
2019-03-01T15:05:48.268Z,25.47
2019-03-01T15:08:17.724Z,25.40
2019-03-01T15:10:45.991Z,23.87
2019-03-01T15:13:14.268Z,24.73
2019-03-01T15:15:42.562Z,24.60
2019-03-01T15:18:10.926Z,24.67
2019-03-01T15:20:39.220Z,24.70
2019-03-01T15:23:07.503Z,22.97
2019-03-01T15:25:36.144Z,23.53
2019-03-01T15:28:04.397Z,24.23
2019-03-01T15:30:32.704Z,22.57
2019-03-01T15:33:01.044Z,24.13
2019-03-01T15:35:29.426Z,23.27
2019-03-01T15:37:57.822Z,23.83
2019-03-01T15:40:27.947Z,24.43
2019-03-01T15:42:56.143Z,23.80
2019-03-01T15:45:24.819Z,23.20
2019-03-01T15:47:53.111Z,23.47
2019-03-01T15:50:23.648Z,22.30
2019-03-01T15:52:51.762Z,21.97
2019-03-01T15:55:20.037Z,23.30
2019-03-01T15:57:48.304Z,22.20
2019-03-01T16:00:19.594Z,22.00
2019-03-01T16:02:50.076Z,22.10
2019-03-01T16:05:18.191Z,22.00
2019-03-01T16:07:46.435Z,21.47
2019-03-01T16:10:19.431Z,22.07
2019-03-01T16:12:47.750Z,21.93
2019-03-01T16:15:16.770Z,22.40
2019-03-01T16:17:45.112Z,23.60
2019-03-01T16:20:18.300Z,23.90
2019-03-01T16:22:51.157Z,23.03
2019-03-01T16:25:20.540Z,22.57
2019-03-01T16:27:50.790Z,23.00
2019-03-01T16:30:20.824Z,23.00
2019-03-01T16:32:50.559Z,23.17
2019-03-01T16:35:22.335Z,21.17
2019-03-01T16:38:02.541Z,22.30
2019-03-01T16:40:30.988Z,22.50
2019-03-01T16:42:59.253Z,28.27
2019-03-01T16:45:27.578Z,22.80
2019-03-01T16:47:55.903Z,22.23
2019-03-01T16:50:26.282Z,22.40
2019-03-01T16:52:54.609Z,22.07
2019-03-01T16:55:28.697Z,22.53
2019-03-01T16:58:06.091Z,23.17
2019-03-01T17:00:28.473Z,22.67
2019-03-01T17:03:16.752Z,22.77
2019-03-01T17:05:41.754Z,21.93
2019-03-01T17:08:10.033Z,22.60
2019-03-01T17:10:38.437Z,21.40
2019-03-01T17:13:06.718Z,23.23
2019-03-01T17:15:35.017Z,20.60
2019-03-01T17:18:03.785Z,20.57
2019-03-01T17:20:37.504Z,19.43
2019-03-01T17:23:03.099Z,19.17
2019-03-01T17:25:32.327Z,20.97
2019-03-01T17:28:00.922Z,20.07
2019-03-01T17:30:29.219Z,21.00
2019-03-01T17:32:57.486Z,20.67
2019-03-01T17:35:25.760Z,19.63
2019-03-01T17:37:54.258Z,18.40
2019-03-01T17:40:23.067Z,15.33
2019-03-01T17:42:53.252Z,15.47
2019-03-01T17:45:22.663Z,15.33
2019-03-01T17:47:51.095Z,15.07
2019-03-01T17:50:19.387Z,15.03
2019-03-01T17:52:48.018Z,15.57
2019-03-01T17:55:26.098Z,16.07
2019-03-01T17:57:54.353Z,15.87
2019-03-01T18:00:26.668Z,16.37
2019-03-01T18:02:55.335Z,13.80
2019-03-01T18:05:23.924Z,15.10
2019-03-01T18:07:52.181Z,15.40
2019-03-01T18:10:22.250Z,15.77
2019-03-01T18:12:53.007Z,16.20
2019-03-01T18:15:23.394Z,17.50
2019-03-01T18:17:52.444Z,14.17
2019-03-01T18:20:21.194Z,13.53
2019-03-01T18:22:49.565Z,13.23
2019-03-01T18:25:18.531Z,13.47
2019-03-01T18:27:49.740Z,13.37
2019-03-01T18:30:27.552Z,14.93
2019-03-01T18:32:55.853Z,13.17
2019-03-01T18:35:24.153Z,12.37
2019-03-01T18:37:55.019Z,11.73
2019-03-01T18:40:22.796Z,14.70
2019-03-01T18:42:51.098Z,12.47
2019-03-01T18:45:24.366Z,10.27
2019-03-01T18:47:53.080Z,10.03
2019-03-01T18:50:32.579Z,9.43
2019-03-01T18:53:03.791Z,10.30
2019-03-01T18:55:32.234Z,9.90
2019-03-01T18:58:00.513Z,9.73
2019-03-01T19:00:32.445Z,8.17
2019-03-01T19:03:04.486Z,8.33
2019-03-01T19:05:31.962Z,8.87
2019-03-01T19:08:00.917Z,8.87
2019-03-01T19:10:30.453Z,8.10
2019-03-01T19:12:59.111Z,8.07
2019-03-01T19:15:27.410Z,9.23
2019-03-01T19:17:55.912Z,7.80
2019-03-01T19:20:32.778Z,7.87
2019-03-01T19:23:01.401Z,8.07
2019-03-01T19:25:29.678Z,7.97
2019-03-01T19:27:58.967Z,7.50
2019-03-01T19:30:27.235Z,8.50
2019-03-01T19:32:55.508Z,9.27
2019-03-01T19:35:28.273Z,10.07
2019-03-01T19:37:54.576Z,8.53
2019-03-01T19:40:23.663Z,7.93
2019-03-01T19:42:52.216Z,7.63
2019-03-01T19:45:21.145Z,8.70
2019-03-01T19:47:49.423Z,9.00
2019-03-01T19:50:25.054Z,11.03
2019-03-01T19:52:52.065Z,10.80
2019-03-01T19:55:20.314Z,8.90
2019-03-01T19:57:48.666Z,8.73
2019-03-01T20:00:25.011Z,9.07
2019-03-01T20:02:53.329Z,8.80
2019-03-01T20:05:36.219Z,8.87
2019-03-01T20:08:04.497Z,8.93
2019-03-01T20:10:32.767Z,9.40
2019-03-01T20:13:01.305Z,9.87
2019-03-01T20:15:30.720Z,10.23
2019-03-01T20:17:59.177Z,11.60
2019-03-01T20:20:29.826Z,12.37
2019-03-01T20:22:59.779Z,12.23
2019-03-01T20:25:28.109Z,12.83
2019-03-01T20:27:56.725Z,13.27
2019-03-01T20:30:30.336Z,12.87
2019-03-01T20:32:56.290Z,12.93
2019-03-01T20:35:26.023Z,12.97
2019-03-01T20:37:54.573Z,12.20
2019-03-01T20:40:26.502Z,12.40
2019-03-01T20:42:55.967Z,13.33
2019-03-01T20:45:36.832Z,12.27
2019-03-01T20:48:05.175Z,12.60
2019-03-01T20:50:33.531Z,12.97
2019-03-01T20:53:02.697Z,13.17
2019-03-01T20:55:33.261Z,13.20
2019-03-01T20:58:03.243Z,13.37
2019-03-01T21:00:32.616Z,13.93
2019-03-01T21:03:01.190Z,13.97
2019-03-01T21:05:32.167Z,14.70
2019-03-01T21:08:01.265Z,13.33
2019-03-01T21:10:31.040Z,13.37
2019-03-01T21:12:59.777Z,14.83
2019-03-01T21:15:28.099Z,22.10
2019-03-01T21:17:56.948Z,14.83
2019-03-01T21:20:26.394Z,14.50
2019-03-01T21:22:54.635Z,14.40
2019-03-01T21:25:24.853Z,14.77
2019-03-01T21:27:53.550Z,14.80
2019-03-01T21:30:25.090Z,13.97
2019-03-01T21:32:53.691Z,15.03
2019-03-01T21:35:21.992Z,14.13
2019-03-01T21:37:50.815Z,14.80
2019-03-01T21:40:19.484Z,15.17
2019-03-01T21:42:48.115Z,14.80
2019-03-01T21:45:21.593Z,15.47
2019-03-01T21:47:48.936Z,15.27
2019-03-01T21:50:17.618Z,15.90
2019-03-01T21:52:47.426Z,16.30
2019-03-01T21:55:24.824Z,15.40
2019-03-01T21:57:51.523Z,15.63
2019-03-01T22:00:29.621Z,16.53
2019-03-01T22:02:57.280Z,15.47
2019-03-01T22:05:25.865Z,15.17
2019-03-01T22:07:54.542Z,14.90
2019-03-01T22:10:22.795Z,15.63
2019-03-01T22:12:51.491Z,16.67
2019-03-01T22:15:25.686Z,14.37
2019-03-01T22:17:55.427Z,15.47
2019-03-01T22:20:23.757Z,15.07
2019-03-01T22:22:52.370Z,15.73
2019-03-01T22:25:20.722Z,14.20
2019-03-01T22:27:49.011Z,15.53
2019-03-01T22:30:25.936Z,15.50
2019-03-01T22:32:54.219Z,15.10
2019-03-01T22:35:22.475Z,15.67
2019-03-01T22:37:50.760Z,15.57
2019-03-01T22:40:19.019Z,16.00
2019-03-01T22:42:49.681Z,15.40
2019-03-01T22:45:18.017Z,15.73
2019-03-01T22:47:46.318Z,17.00
2019-03-01T22:50:20.929Z,17.67
2019-03-01T22:52:49.344Z,16.63
2019-03-01T22:55:20.591Z,16.63
2019-03-01T22:57:49.119Z,16.83
2019-03-01T23:00:47.833Z,16.33
2019-03-01T23:03:18.911Z,15.50
2019-03-01T23:05:48.024Z,15.60
2019-03-01T23:08:16.658Z,14.93
2019-03-01T23:10:44.920Z,15.90
2019-03-01T23:13:13.191Z,16.03
2019-03-01T23:15:43.349Z,16.83
2019-03-01T23:18:11.443Z,16.27
2019-03-01T23:20:39.752Z,15.67
2019-03-01T23:23:08.072Z,15.87
2019-03-01T23:25:36.346Z,14.80
2019-03-01T23:28:08.262Z,13.63
2019-03-01T23:30:34.875Z,15.20
2019-03-01T23:33:03.131Z,19.23
2019-03-01T23:35:31.478Z,22.17
2019-03-01T23:37:59.843Z,17.60
2019-03-01T23:40:28.218Z,14.80
2019-03-01T23:42:57.141Z,14.33
2019-03-01T23:45:25.534Z,13.47
2019-03-01T23:47:54.070Z,13.50
2019-03-01T23:50:22.774Z,13.60
2019-03-01T23:52:51.031Z,13.50
2019-03-01T23:55:19.933Z,13.10
2019-03-01T23:57:48.345Z,13.73
